Time;durP1;ratioP1;P1;durP2;ratioP2;P2;SDS_P1;SDS_P2;PMS_P1;PMS_P2;Temp;Humidity;BMP_temperature;BMP_pressure;BME280_temperature;BME280_humidity;BME280_pressure;Samples;Min_cycle;Max_cycle;Signal;HPM_P1;HPM_P2
2023/09/22 00:02:13;;;;;;;4.85;3.40;;;;;;;;;;5124633;27;20094;-77
2023/09/22 00:04:40;;;;;;;3.75;3.00;;;;;;;;;;5147625;27;20512;-78
2023/09/22 00:07:06;;;;;;;4.15;3.22;;;;;;;;;;5119513;27;20051;-77
2023/09/22 00:09:32;;;;;;;4.70;3.10;;;;;;;;;;5135423;27;20050;-78
2023/09/22 00:11:59;;;;;;;5.32;3.45;;;;;;;;;;5153689;27;20639;-77
2023/09/22 00:14:26;;;;;;;3.85;3.10;;;;;;;;;;5138098;27;20050;-77
2023/09/22 00:16:53;;;;;;;4.70;2.88;;;;;;;;;;5134979;27;20095;-78
2023/09/22 00:19:19;;;;;;;5.72;2.88;;;;;;;;;;5130289;27;20034;-77
2023/09/22 00:21:45;;;;;;;3.60;2.60;;;;;;;;;;5151469;27;20060;-77
2023/09/22 00:24:11;;;;;;;3.78;2.83;;;;;;;;;;5135285;27;20074;-78
2023/09/22 00:26:37;;;;;;;4.78;2.83;;;;;;;;;;5136989;27;20446;-77
2023/09/22 00:29:03;;;;;;;4.53;3.08;;;;;;;;;;5137819;27;20043;-77
2023/09/22 00:31:29;;;;;;;5.80;3.10;;;;;;;;;;5112607;27;20043;-77
2023/09/22 00:33:55;;;;;;;3.90;2.80;;;;;;;;;;5136752;27;20043;-77
2023/09/22 00:36:22;;;;;;;3.58;2.90;;;;;;;;;;5122424;27;20059;-77
2023/09/22 00:38:48;;;;;;;4.63;2.67;;;;;;;;;;5100653;27;20043;-76
2023/09/22 00:41:14;;;;;;;3.95;2.75;;;;;;;;;;5120482;27;20054;-75
2023/09/22 00:43:41;;;;;;;3.65;2.75;;;;;;;;;;5120216;27;20042;-77
2023/09/22 00:46:07;;;;;;;4.38;3.10;;;;;;;;;;5135944;27;20130;-77
2023/09/22 00:48:35;;;;;;;3.97;2.90;;;;;;;;;;5112443;27;20043;-78
2023/09/22 00:51:01;;;;;;;4.50;2.67;;;;;;;;;;5135253;27;20050;-77
2023/09/22 00:53:33;;;;;;;5.28;2.90;;;;;;;;;;5135267;27;20035;-78
2023/09/22 00:56:00;;;;;;;4.93;2.83;;;;;;;;;;5136751;27;20349;-78
2023/09/22 00:58:26;;;;;;;6.03;3.60;;;;;;;;;;5135534;27;20118;-78
2023/09/22 01:00:53;;;;;;;6.80;3.67;;;;;;;;;;5123506;27;20403;-78
2023/09/22 01:03:19;;;;;;;7.00;3.83;;;;;;;;;;5144515;27;20100;-78
2023/09/22 01:05:49;;;;;;;5.25;3.95;;;;;;;;;;5133680;27;20051;-78
2023/09/22 01:08:15;;;;;;;6.60;5.18;;;;;;;;;;5149191;27;20535;-78
2023/09/22 01:10:44;;;;;;;8.07;5.72;;;;;;;;;;5117608;27;20058;-78
2023/09/22 01:13:10;;;;;;;8.93;6.97;;;;;;;;;;5131520;27;20498;-78
2023/09/22 01:15:37;;;;;;;9.35;7.47;;;;;;;;;;5136967;27;20053;-78
2023/09/22 01:18:07;;;;;;;10.15;8.18;;;;;;;;;;5132598;27;20065;-78
2023/09/22 01:20:38;;;;;;;11.27;7.80;;;;;;;;;;5136598;27;20084;-78
2023/09/22 01:23:04;;;;;;;10.63;8.75;;;;;;;;;;5136230;27;20121;-78
2023/09/22 01:25:31;;;;;;;13.93;10.23;;;;;;;;;;5155702;27;20090;-78
2023/09/22 01:27:57;;;;;;;14.63;10.60;;;;;;;;;;5123478;27;20043;-78
2023/09/22 01:30:23;;;;;;;12.75;10.55;;;;;;;;;;5148474;27;20102;-79
2023/09/22 01:32:49;;;;;;;13.45;11.02;;;;;;;;;;5133601;27;20050;-78
2023/09/22 01:35:15;;;;;;;15.05;11.27;;;;;;;;;;5141769;27;20051;-78
2023/09/22 01:37:47;;;;;;;15.50;12.20;;;;;;;;;;5127336;27;20047;-78
2023/09/22 01:40:16;;;;;;;13.85;11.90;;;;;;;;;;5149785;27;20054;-78
2023/09/22 01:42:42;;;;;;;17.17;12.60;;;;;;;;;;5136984;27;20047;-78
2023/09/22 01:45:08;;;;;;;16.10;13.95;;;;;;;;;;5139621;27;20031;-77
2023/09/22 01:47:35;;;;;;;17.15;13.57;;;;;;;;;;5120779;27;20057;-76
2023/09/22 01:50:01;;;;;;;18.67;15.00;;;;;;;;;;5140747;27;20524;-77
2023/09/22 01:52:27;;;;;;;19.90;16.60;;;;;;;;;;5136609;27;20042;-77
2023/09/22 01:54:54;;;;;;;18.02;15.68;;;;;;;;;;5145120;27;20030;-77
2023/09/22 01:57:20;;;;;;;20.52;17.52;;;;;;;;;;5155900;27;20561;-77
2023/09/22 01:59:46;;;;;;;19.45;17.35;;;;;;;;;;5153940;27;20053;-76
2023/09/22 02:02:13;;;;;;;24.08;18.13;;;;;;;;;;5122105;27;20039;-78
2023/09/22 02:04:39;;;;;;;21.90;18.23;;;;;;;;;;5127110;27;20055;-78
2023/09/22 02:07:05;;;;;;;19.70;17.35;;;;;;;;;;5131985;27;20532;-78
2023/09/22 02:09:31;;;;;;;23.48;18.35;;;;;;;;;;5137665;27;20459;-76
2023/09/22 02:11:58;;;;;;;20.88;17.77;;;;;;;;;;5100240;27;20058;-77
2023/09/22 02:14:24;;;;;;;25.00;20.50;;;;;;;;;;5096661;27;20067;-77
2023/09/22 02:16:50;;;;;;;22.35;19.58;;;;;;;;;;5099624;27;20444;-77
2023/09/22 02:19:16;;;;;;;25.45;20.90;;;;;;;;;;5115348;27;20509;-77
2023/09/22 02:21:43;;;;;;;25.98;21.00;;;;;;;;;;5134770;27;20436;-77
2023/09/22 02:24:09;;;;;;;23.25;20.05;;;;;;;;;;5152796;27;20106;-77
2023/09/22 02:26:35;;;;;;;24.95;21.60;;;;;;;;;;5138981;27;20089;-76
2023/09/22 02:29:02;;;;;;;24.30;21.70;;;;;;;;;;5151330;27;20035;-77
2023/09/22 02:31:28;;;;;;;23.60;20.95;;;;;;;;;;5137979;27;20051;-77
2023/09/22 02:33:54;;;;;;;25.35;21.38;;;;;;;;;;5150084;27;20370;-77
2023/09/22 02:36:20;;;;;;;23.38;20.92;;;;;;;;;;5134629;27;20487;-76
2023/09/22 02:38:46;;;;;;;24.13;21.45;;;;;;;;;;5115906;27;20040;-76
2023/09/22 02:41:14;;;;;;;25.45;22.50;;;;;;;;;;5134140;27;20051;-77
2023/09/22 02:43:40;;;;;;;24.58;21.90;;;;;;;;;;5130449;27;20058;-77
2023/09/22 02:46:06;;;;;;;24.10;21.70;;;;;;;;;;5118009;27;20047;-77
2023/09/22 02:48:32;;;;;;;24.08;21.58;;;;;;;;;;5136469;27;20042;-77
2023/09/22 02:50:58;;;;;;;25.02;22.38;;;;;;;;;;5124746;27;20055;-77
2023/09/22 02:53:24;;;;;;;25.27;22.02;;;;;;;;;;5132756;27;20035;-77
2023/09/22 02:55:50;;;;;;;23.35;20.80;;;;;;;;;;5130083;27;20034;-76
2023/09/22 02:58:16;;;;;;;24.13;21.52;;;;;;;;;;5135612;27;20129;-78
2023/09/22 03:00:44;;;;;;;24.02;21.42;;;;;;;;;;5153527;27;20448;-77
2023/09/22 03:03:15;;;;;;;26.27;22.75;;;;;;;;;;5135449;27;20062;-77
2023/09/22 03:05:42;;;;;;;25.15;22.50;;;;;;;;;;5153327;27;20529;-77
2023/09/22 03:08:08;;;;;;;25.33;22.35;;;;;;;;;;5154257;27;20042;-77
2023/09/22 03:10:34;;;;;;;24.60;22.00;;;;;;;;;;5153576;27;20038;-77
2023/09/22 03:13:00;;;;;;;25.45;22.08;;;;;;;;;;5118139;27;20179;-77
2023/09/22 03:15:26;;;;;;;25.73;22.73;;;;;;;;;;5153439;27;20043;-77
2023/09/22 03:17:52;;;;;;;27.60;23.52;;;;;;;;;;5137643;27;20125;-77
2023/09/22 03:20:19;;;;;;;26.00;21.73;;;;;;;;;;5115293;27;20426;-76
2023/09/22 03:22:46;;;;;;;24.00;21.48;;;;;;;;;;5118457;27;20050;-77
2023/09/22 03:25:12;;;;;;;25.00;22.00;;;;;;;;;;5133790;27;20049;-77
2023/09/22 03:27:38;;;;;;;25.83;23.13;;;;;;;;;;5115032;27;20104;-77
2023/09/22 03:30:06;;;;;;;24.45;21.73;;;;;;;;;;5139018;27;20068;-76
2023/09/22 03:32:32;;;;;;;24.58;21.70;;;;;;;;;;5124878;27;20047;-77
2023/09/22 03:34:58;;;;;;;25.23;21.38;;;;;;;;;;5132842;27;20048;-77
2023/09/22 03:37:29;;;;;;;24.50;21.88;;;;;;;;;;5133144;28;20055;-77
2023/09/22 03:39:58;;;;;;;24.15;21.55;;;;;;;;;;5112813;28;20112;-77
2023/09/22 03:42:28;;;;;;;25.15;21.08;;;;;;;;;;5133022;28;20046;-77
2023/09/22 03:44:54;;;;;;;26.02;21.60;;;;;;;;;;5132843;28;20236;-77
2023/09/22 03:47:20;;;;;;;23.73;21.17;;;;;;;;;;5113455;28;20398;-77
2023/09/22 03:49:46;;;;;;;25.13;20.55;;;;;;;;;;5133115;28;20039;-77
2023/09/22 03:52:14;;;;;;;23.13;19.88;;;;;;;;;;5132271;28;20098;-76
2023/09/22 03:54:40;;;;;;;22.92;19.70;;;;;;;;;;5110825;28;20130;-77
2023/09/22 03:57:06;;;;;;;24.55;20.98;;;;;;;;;;5094697;28;20048;-77
2023/09/22 03:59:32;;;;;;;24.88;20.60;;;;;;;;;;5116693;27;20122;-76
2023/09/22 04:01:59;;;;;;;23.05;19.05;;;;;;;;;;5136991;27;20122;-77
2023/09/22 04:04:29;;;;;;;25.27;19.63;;;;;;;;;;5156475;27;20050;-75
2023/09/22 04:06:58;;;;;;;21.67;19.10;;;;;;;;;;5155432;27;20098;-77
2023/09/22 04:09:24;;;;;;;22.42;19.73;;;;;;;;;;5117905;27;20172;-77
2023/09/22 04:11:50;;;;;;;22.85;19.05;;;;;;;;;;5133497;28;20491;-77
2023/09/22 04:14:16;;;;;;;23.00;18.95;;;;;;;;;;5114677;27;20055;-77
2023/09/22 04:16:42;;;;;;;23.17;19.27;;;;;;;;;;5115895;27;20043;-77
2023/09/22 04:19:09;;;;;;;24.55;18.73;;;;;;;;;;5134816;27;20388;-78
2023/09/22 04:21:43;;;;;;;22.77;18.67;;;;;;;;;;5153138;27;20049;-77
2023/09/22 04:24:11;;;;;;;21.83;17.75;;;;;;;;;;5117269;27;20153;-77
2023/09/22 04:26:42;;;;;;;22.95;18.23;;;;;;;;;;5146556;27;20077;-77
2023/09/22 04:29:11;;;;;;;22.08;17.95;;;;;;;;;;5133084;27;20130;-78
2023/09/22 04:31:38;;;;;;;23.17;19.05;;;;;;;;;;5125509;27;20066;-77
2023/09/22 04:34:04;;;;;;;21.25;17.08;;;;;;;;;;5128531;28;20054;-78
2023/09/22 04:36:31;;;;;;;22.55;18.30;;;;;;;;;;5132974;28;20054;-77
2023/09/22 04:38:57;;;;;;;24.02;18.42;;;;;;;;;;5133065;28;20059;-78
2023/09/22 04:41:23;;;;;;;24.33;17.73;;;;;;;;;;5114500;27;20074;-78
2023/09/22 04:43:49;;;;;;;20.23;17.13;;;;;;;;;;5136000;27;20487;-78
2023/09/22 04:46:16;;;;;;;22.67;16.92;;;;;;;;;;5118131;27;20042;-78
2023/09/22 04:48:42;;;;;;;19.80;16.40;;;;;;;;;;5136826;27;20051;-78
2023/09/22 04:51:08;;;;;;;23.23;17.83;;;;;;;;;;5136420;27;20159;-78
2023/09/22 04:53:34;;;;;;;24.95;18.02;;;;;;;;;;5133962;27;20039;-78
2023/09/22 04:56:06;;;;;;;26.65;18.48;;;;;;;;;;5115466;28;20458;-78
2023/09/22 04:58:32;;;;;;;25.25;18.13;;;;;;;;;;5115874;28;20043;-78
2023/09/22 05:01:01;;;;;;;23.08;18.63;;;;;;;;;;5097346;28;20050;-77
2023/09/22 05:03:28;;;;;;;26.13;19.10;;;;;;;;;;5115990;28;20047;-77
2023/09/22 05:05:54;;;;;;;23.92;19.10;;;;;;;;;;5133765;27;20092;-78
2023/09/22 05:08:21;;;;;;;25.98;19.88;;;;;;;;;;5121444;27;20026;-77
2023/09/22 05:10:48;;;;;;;26.98;20.88;;;;;;;;;;5146546;27;20039;-77
2023/09/22 05:13:15;;;;;;;27.80;22.17;;;;;;;;;;5136351;27;20080;-77
2023/09/22 05:15:43;;;;;;;27.52;21.73;;;;;;;;;;5116850;27;20107;-77
2023/09/22 05:18:12;;;;;;;28.65;20.88;;;;;;;;;;5135479;27;20051;-78
2023/09/22 05:20:39;;;;;;;26.98;21.77;;;;;;;;;;5135325;27;20498;-77
2023/09/22 05:23:06;;;;;;;24.50;20.55;;;;;;;;;;5147217;27;20159;-77
2023/09/22 05:25:33;;;;;;;25.33;21.17;;;;;;;;;;5094258;28;20035;-77
2023/09/22 05:28:00;;;;;;;27.13;20.45;;;;;;;;;;5140462;27;20402;-77
2023/09/22 05:30:26;;;;;;;24.83;19.60;;;;;;;;;;5153623;27;20168;-78
2023/09/22 05:32:53;;;;;;;27.42;20.58;;;;;;;;;;5145970;27;20051;-77
2023/09/22 05:35:20;;;;;;;26.05;20.70;;;;;;;;;;5124522;27;20068;-76
2023/09/22 05:37:46;;;;;;;25.42;19.85;;;;;;;;;;5135773;27;20042;-77
2023/09/22 05:40:12;;;;;;;27.35;20.52;;;;;;;;;;5134750;27;20494;-76
2023/09/22 05:42:42;;;;;;;27.02;19.73;;;;;;;;;;5133937;27;20051;-77
2023/09/22 05:45:09;;;;;;;24.63;19.90;;;;;;;;;;5133829;27;20051;-77
2023/09/22 05:47:35;;;;;;;25.88;20.63;;;;;;;;;;5135443;27;20047;-77
2023/09/22 05:50:02;;;;;;;29.13;22.10;;;;;;;;;;5134922;27;20582;-77
2023/09/22 05:52:29;;;;;;;24.95;20.58;;;;;;;;;;5150731;27;20039;-77
2023/09/22 05:54:56;;;;;;;30.25;22.35;;;;;;;;;;5101795;28;20043;-77
2023/09/22 05:57:22;;;;;;;26.27;20.70;;;;;;;;;;5114944;28;20043;-77
2023/09/22 05:59:48;;;;;;;30.80;22.08;;;;;;;;;;5095778;28;20051;-77
2023/09/22 06:02:14;;;;;;;27.52;21.48;;;;;;;;;;5116113;27;20116;-77
2023/09/22 06:04:44;;;;;;;31.10;22.98;;;;;;;;;;5116009;27;20052;-77
2023/09/22 06:07:12;;;;;;;29.88;23.08;;;;;;;;;;5099864;27;20043;-77
2023/09/22 06:09:39;;;;;;;28.00;22.27;;;;;;;;;;5115674;27;20079;-77
2023/09/22 06:12:06;;;;;;;33.13;25.40;;;;;;;;;;5116027;27;20445;-77
2023/09/22 06:14:32;;;;;;;27.15;22.08;;;;;;;;;;5133915;27;20070;-78
2023/09/22 06:16:58;;;;;;;29.65;22.65;;;;;;;;;;5120448;27;20130;-77
2023/09/22 06:19:24;;;;;;;30.13;23.92;;;;;;;;;;5134134;27;20559;-77
2023/09/22 06:21:50;;;;;;;30.52;23.92;;;;;;;;;;5128009;27;20436;-77
2023/09/22 06:24:17;;;;;;;31.50;24.48;;;;;;;;;;5133840;27;20046;-77
2023/09/22 06:26:43;;;;;;;31.60;24.50;;;;;;;;;;5114744;27;20180;-77
2023/09/22 06:29:09;;;;;;;29.60;23.73;;;;;;;;;;5115806;27;20046;-77
2023/09/22 06:31:37;;;;;;;33.17;24.95;;;;;;;;;;5115390;27;20067;-76
2023/09/22 06:34:04;;;;;;;30.63;24.10;;;;;;;;;;5115639;27;20092;-77
2023/09/22 06:36:31;;;;;;;29.63;23.75;;;;;;;;;;5134415;27;20066;-77
2023/09/22 06:38:57;;;;;;;31.05;24.63;;;;;;;;;;5149165;27;20047;-77
2023/09/22 06:41:23;;;;;;;32.80;24.77;;;;;;;;;;5133738;27;20043;-77
2023/09/22 06:43:49;;;;;;;30.55;24.40;;;;;;;;;;5133650;27;20399;-77
2023/09/22 06:46:17;;;;;;;30.65;24.40;;;;;;;;;;5133648;27;20094;-77
2023/09/22 06:48:44;;;;;;;31.60;24.02;;;;;;;;;;5133174;27;20051;-77
2023/09/22 06:51:14;;;;;;;29.02;23.67;;;;;;;;;;5132555;27;20435;-77
2023/09/22 06:53:41;;;;;;;29.88;23.05;;;;;;;;;;5111982;28;20035;-77
2023/09/22 06:56:09;;;;;;;32.00;23.35;;;;;;;;;;5126324;27;20061;-77
2023/09/22 06:58:36;;;;;;;28.92;22.77;;;;;;;;;;5133787;27;20046;-77
2023/09/22 07:01:11;;;;;;;29.08;21.98;;;;;;;;;;5115734;27;20068;-78
2023/09/22 07:03:38;;;;;;;26.85;21.42;;;;;;;;;;5094731;28;20046;-77
2023/09/22 07:06:09;;;;;;;26.33;21.48;;;;;;;;;;5094201;28;20058;-77
2023/09/22 07:08:35;;;;;;;27.08;20.60;;;;;;;;;;5112996;28;20044;-77
2023/09/22 07:11:10;;;;;;;28.67;20.83;;;;;;;;;;5123500;27;20111;-77
2023/09/22 07:13:37;;;;;;;26.73;20.67;;;;;;;;;;5133766;27;20400;-77
2023/09/22 07:16:03;;;;;;;25.98;19.92;;;;;;;;;;5133245;27;20047;-77
2023/09/22 07:18:29;;;;;;;25.50;19.83;;;;;;;;;;5097050;27;20052;-77
2023/09/22 07:20:55;;;;;;;24.50;19.15;;;;;;;;;;5114775;27;20054;-77
2023/09/22 07:23:22;;;;;;;23.38;18.90;;;;;;;;;;5115580;27;20054;-76
2023/09/22 07:26:01;;;;;;;24.10;18.42;;;;;;;;;;5135498;27;20043;-75
2023/09/22 07:28:28;;;;;;;21.67;15.80;;;;;;;;;;5137356;27;20040;-75
2023/09/22 07:30:54;;;;;;;23.73;16.20;;;;;;;;;;5133713;27;20142;-76
2023/09/22 07:33:20;;;;;;;21.08;15.82;;;;;;;;;;5101760;27;20050;-76
2023/09/22 07:35:49;;;;;;;24.48;16.55;;;;;;;;;;5114589;28;20062;-76
2023/09/22 07:38:16;;;;;;;24.52;17.13;;;;;;;;;;5134031;28;20066;-77
2023/09/22 07:40:43;;;;;;;21.58;15.77;;;;;;;;;;5132655;28;20067;-77
2023/09/22 07:43:10;;;;;;;21.98;14.88;;;;;;;;;;5114296;28;20526;-77
2023/09/22 07:45:36;;;;;;;20.52;15.10;;;;;;;;;;5133146;28;20043;-76
2023/09/22 07:48:02;;;;;;;20.77;15.60;;;;;;;;;;5133551;28;20047;-76
2023/09/22 07:50:29;;;;;;;22.67;15.82;;;;;;;;;;5141584;27;20086;-76
2023/09/22 07:52:56;;;;;;;19.92;14.93;;;;;;;;;;5150941;27;20050;-77
2023/09/22 07:55:23;;;;;;;19.42;15.35;;;;;;;;;;5095857;28;20048;-77
2023/09/22 07:57:50;;;;;;;20.67;16.15;;;;;;;;;;5112238;28;20077;-74
2023/09/22 08:00:18;;;;;;;22.65;15.98;;;;;;;;;;5094281;28;20046;-77
2023/09/22 08:02:45;;;;;;;19.70;15.98;;;;;;;;;;5094563;28;20055;-77
2023/09/22 08:05:15;;;;;;;19.98;15.88;;;;;;;;;;5100586;27;20042;-79
2023/09/22 08:07:44;;;;;;;19.80;14.48;;;;;;;;;;5153718;27;20129;-77
2023/09/22 08:10:11;;;;;;;19.77;14.27;;;;;;;;;;5134704;27;20061;-77
2023/09/22 08:12:44;;;;;;;20.58;14.35;;;;;;;;;;5120485;27;20039;-77
2023/09/22 08:15:10;;;;;;;23.08;14.75;;;;;;;;;;5131146;28;20035;-77
2023/09/22 08:17:36;;;;;;;19.33;13.77;;;;;;;;;;5134215;27;20043;-77
2023/09/22 08:20:06;;;;;;;18.85;14.15;;;;;;;;;;5128653;27;20132;-76
2023/09/22 08:22:32;;;;;;;17.83;13.45;;;;;;;;;;5124195;27;20051;-76
2023/09/22 08:24:58;;;;;;;18.38;13.23;;;;;;;;;;5137944;27;20043;-76
2023/09/22 08:27:24;;;;;;;17.40;12.73;;;;;;;;;;5137620;27;20074;-76
2023/09/22 08:29:50;;;;;;;16.60;12.35;;;;;;;;;;5097582;28;20314;-75
2023/09/22 08:32:17;;;;;;;16.38;13.00;;;;;;;;;;5081577;28;20179;-76
2023/09/22 08:34:43;;;;;;;17.25;12.50;;;;;;;;;;5119800;27;20394;-76
2023/09/22 08:37:10;;;;;;;16.48;12.98;;;;;;;;;;5128310;27;20111;-76
2023/09/22 08:39:36;;;;;;;15.88;12.55;;;;;;;;;;5128841;27;20089;-76
2023/09/22 08:42:02;;;;;;;16.65;12.15;;;;;;;;;;5122907;27;20043;-76
2023/09/22 08:44:28;;;;;;;20.70;12.30;;;;;;;;;;5121230;27;20046;-76
2023/09/22 08:46:54;;;;;;;15.32;12.07;;;;;;;;;;5116522;27;20415;-77
2023/09/22 08:49:23;;;;;;;16.02;12.13;;;;;;;;;;5109131;28;20040;-78
2023/09/22 08:51:49;;;;;;;15.60;11.90;;;;;;;;;;5127119;27;20046;-77
2023/09/22 08:54:16;;;;;;;14.40;11.75;;;;;;;;;;5103350;27;20047;-76
2023/09/22 08:56:42;;;;;;;16.55;11.75;;;;;;;;;;5106794;28;20079;-76
2023/09/22 08:59:10;;;;;;;14.48;11.02;;;;;;;;;;5105675;27;20539;-77
2023/09/22 09:01:37;;;;;;;13.32;10.50;;;;;;;;;;5128955;27;20043;-76
2023/09/22 09:04:21;;;;;;;14.38;10.07;;;;;;;;;;5135841;27;20383;-76
2023/09/22 09:06:47;;;;;;;13.13;9.65;;;;;;;;;;5116435;27;20046;-76
2023/09/22 09:09:13;;;;;;;16.23;9.68;;;;;;;;;;5124174;27;20039;-76
2023/09/22 09:11:59;;;;;;;15.02;8.75;;;;;;;;;;5107811;28;20386;-76
2023/09/22 09:14:28;;;;;;;11.93;7.68;;;;;;;;;;5099697;27;20035;-76
2023/09/22 09:16:56;;;;;;;9.77;7.07;;;;;;;;;;5119554;27;20094;-76
2023/09/22 09:19:22;;;;;;;9.30;5.93;;;;;;;;;;5130709;27;20046;-76
2023/09/22 09:22:04;;;;;;;8.48;6.15;;;;;;;;;;5153748;27;20043;-76
2023/09/22 09:24:31;;;;;;;9.25;6.15;;;;;;;;;;5123078;27;20050;-76
2023/09/22 09:26:58;;;;;;;11.35;6.28;;;;;;;;;;5137743;27;20487;-76
2023/09/22 09:29:28;;;;;;;9.52;6.10;;;;;;;;;;5137206;27;20046;-76
2023/09/22 09:31:56;;;;;;;9.52;5.82;;;;;;;;;;5137750;27;20050;-76
2023/09/22 09:34:37;;;;;;;7.22;5.10;;;;;;;;;;5137000;27;20145;-76
2023/09/22 09:37:13;;;;;;;6.07;4.97;;;;;;;;;;5156315;27;20047;-77
2023/09/22 09:39:43;;;;;;;6.70;4.80;;;;;;;;;;5137765;27;20050;-77
2023/09/22 09:42:10;;;;;;;7.00;4.43;;;;;;;;;;5155913;27;20043;-76
2023/09/22 09:44:37;;;;;;;6.38;4.00;;;;;;;;;;5155614;27;20049;-77
2023/09/22 09:47:03;;;;;;;6.15;3.50;;;;;;;;;;5120883;27;20405;-76
2023/09/22 09:49:30;;;;;;;7.70;3.30;;;;;;;;;;5136811;27;20173;-76
2023/09/22 09:51:57;;;;;;;5.82;3.50;;;;;;;;;;5156460;27;20386;-77
2023/09/22 09:54:24;;;;;;;7.28;3.72;;;;;;;;;;5144283;27;20057;-76
2023/09/22 09:56:50;;;;;;;8.30;3.58;;;;;;;;;;5132779;27;20142;-76
2023/09/22 09:59:17;;;;;;;5.88;3.30;;;;;;;;;;5134931;27;20134;-76
2023/09/22 10:01:43;;;;;;;5.18;2.85;;;;;;;;;;5116434;27;20050;-76
2023/09/22 10:04:10;;;;;;;5.68;2.80;;;;;;;;;;5116281;27;20064;-76
2023/09/22 10:06:36;;;;;;;4.25;2.40;;;;;;;;;;5116212;27;20081;-76
2023/09/22 10:09:09;;;;;;;5.78;2.50;;;;;;;;;;5134593;27;20095;-76
2023/09/22 10:11:35;;;;;;;5.85;2.38;;;;;;;;;;5134507;27;20484;-76
2023/09/22 10:14:01;;;;;;;4.88;2.05;;;;;;;;;;5116249;27;20173;-76
2023/09/22 10:16:29;;;;;;;6.13;2.30;;;;;;;;;;5115291;27;20390;-76
2023/09/22 10:18:56;;;;;;;3.97;2.20;;;;;;;;;;5116164;27;20047;-76
2023/09/22 10:21:38;;;;;;;3.78;2.10;;;;;;;;;;5116075;27;20125;-76
2023/09/22 10:24:13;;;;;;;4.18;2.00;;;;;;;;;;5114822;27;20190;-76
2023/09/22 10:27:01;;;;;;;3.58;1.92;;;;;;;;;;5114546;27;20090;-76
2023/09/22 10:29:33;;;;;;;5.32;2.00;;;;;;;;;;5134013;27;20059;-75
2023/09/22 10:32:26;;;;;;;4.43;2.00;;;;;;;;;;5134019;27;20038;-76
2023/09/22 10:34:54;;;;;;;5.47;2.03;;;;;;;;;;5133703;27;20074;-77
2023/09/22 10:37:24;;;;;;;5.55;1.95;;;;;;;;;;5134421;27;20169;-77
2023/09/22 10:39:56;;;;;;;3.75;1.92;;;;;;;;;;5133119;27;20039;-77
2023/09/22 10:42:22;;;;;;;3.15;1.63;;;;;;;;;;5115651;27;20051;-76
2023/09/22 10:44:58;;;;;;;3.67;1.63;;;;;;;;;;5115387;27;20058;-76
2023/09/22 10:47:27;;;;;;;3.95;1.77;;;;;;;;;;5133925;27;20470;-76
2023/09/22 10:49:54;;;;;;;2.47;1.45;;;;;;;;;;5117026;27;20047;-75
2023/09/22 10:52:20;;;;;;;2.30;1.38;;;;;;;;;;5138146;27;20047;-74
2023/09/22 10:54:47;;;;;;;4.40;1.70;;;;;;;;;;5126621;27;20079;-75
2023/09/22 10:57:27;;;;;;;3.42;1.40;;;;;;;;;;5126180;27;20456;-75
2023/09/22 10:59:55;;;;;;;4.07;1.58;;;;;;;;;;5123745;27;20047;-79
2023/09/22 11:02:26;;;;;;;3.40;1.50;;;;;;;;;;5145718;27;20046;-78
2023/09/22 11:04:53;;;;;;;4.68;1.92;;;;;;;;;;5151381;27;20043;-79
2023/09/22 11:07:49;;;;;;;3.72;1.65;;;;;;;;;;5133243;27;20047;-80
2023/09/22 11:10:15;;;;;;;;;;;;;;;;;;5103539;27;20055;-78
2023/09/22 11:12:46;;;;;;;3.35;1.70;;;;;;;;;;5125142;27;19919;-79
2023/09/22 11:15:13;;;;;;;4.00;1.80;;;;;;;;;;5106192;27;20103;-79
2023/09/22 11:17:41;;;;;;;2.67;1.75;;;;;;;;;;5120392;27;20050;-80
2023/09/22 11:20:15;;;;;;;3.78;1.77;;;;;;;;;;5086165;28;20047;-80
2023/09/22 11:22:41;;;;;;;5.63;1.73;;;;;;;;;;5121928;27;20054;-80
2023/09/22 11:25:09;;;;;;;2.25;1.60;;;;;;;;;;5108256;27;20078;-78
2023/09/22 11:27:49;;;;;;;3.83;1.67;;;;;;;;;;5120562;27;20035;-79
2023/09/22 11:30:20;;;;;;;3.33;1.60;;;;;;;;;;5118004;27;20087;-78
2023/09/22 11:32:47;;;;;;;2.55;1.52;;;;;;;;;;5102426;27;20104;-79
2023/09/22 11:35:29;;;;;;;3.40;1.60;;;;;;;;;;5118582;27;20430;-80
2023/09/22 11:37:57;;;;;;;3.08;1.50;;;;;;;;;;5116466;27;20047;-78
2023/09/22 11:40:28;;;;;;;3.40;1.80;;;;;;;;;;5134970;27;20294;-85
2023/09/22 11:42:54;;;;;;;3.70;2.00;;;;;;;;;;5153619;27;20054;-82
2023/09/22 11:45:23;;;;;;;3.20;2.05;;;;;;;;;;5140264;27;20054;-79
2023/09/22 11:47:50;;;;;;;4.53;1.88;;;;;;;;;;5138101;27;20429;-79
2023/09/22 11:50:25;;;;;;;4.55;1.80;;;;;;;;;;5131177;27;20040;-79
2023/09/22 11:52:51;;;;;;;3.08;1.80;;;;;;;;;;5103587;27;20114;-79
2023/09/22 11:55:19;;;;;;;3.47;1.80;;;;;;;;;;5105131;28;20429;-80
2023/09/22 11:57:45;;;;;;;2.67;1.77;;;;;;;;;;5098095;28;20050;-79
2023/09/22 12:00:14;;;;;;;2.80;1.70;;;;;;;;;;5098138;28;20482;-79
2023/09/22 12:02:40;;;;;;;3.50;1.90;;;;;;;;;;5098154;28;20051;-80
2023/09/22 12:05:07;;;;;;;2.95;1.73;;;;;;;;;;5121991;27;20461;-78
2023/09/22 12:07:33;;;;;;;4.35;1.80;;;;;;;;;;5158196;27;20082;-79
2023/09/22 12:09:59;;;;;;;3.30;1.70;;;;;;;;;;5139013;27;20084;-79
2023/09/22 12:12:26;;;;;;;3.95;1.83;;;;;;;;;;5139205;27;20359;-79
2023/09/22 12:14:52;;;;;;;2.70;1.80;;;;;;;;;;5146098;27;20464;-80
2023/09/22 12:17:18;;;;;;;4.22;1.85;;;;;;;;;;5109876;27;20100;-80
2023/09/22 12:19:44;;;;;;;4.40;2.25;;;;;;;;;;5090948;27;20122;-79
2023/09/22 12:22:10;;;;;;;8.65;2.67;;;;;;;;;;5124569;27;20126;-80
2023/09/22 12:24:36;;;;;;;4.82;2.13;;;;;;;;;;5107934;27;20070;-77
2023/09/22 12:27:03;;;;;;;4.63;1.90;;;;;;;;;;5122614;27;20047;-79
2023/09/22 12:29:29;;;;;;;3.53;2.10;;;;;;;;;;5116215;28;20403;-74
2023/09/22 12:31:56;;;;;;;3.20;2.30;;;;;;;;;;5116028;28;20035;-76
2023/09/22 12:34:22;;;;;;;4.13;2.22;;;;;;;;;;5100237;27;20053;-77
2023/09/22 12:36:48;;;;;;;9.35;2.35;;;;;;;;;;5118198;27;20063;-76
2023/09/22 12:39:16;;;;;;;5.53;2.15;;;;;;;;;;5136347;27;20065;-76
2023/09/22 12:41:42;;;;;;;4.07;2.03;;;;;;;;;;5136721;27;20051;-80
2023/09/22 12:44:08;;;;;;;2.75;1.90;;;;;;;;;;5138219;27;20031;-79
2023/09/22 12:46:34;;;;;;;3.40;1.90;;;;;;;;;;5143089;27;20046;-80
2023/09/22 12:49:01;;;;;;;3.67;1.80;;;;;;;;;;5142508;27;20031;-79
2023/09/22 12:51:27;;;;;;;2.15;1.70;;;;;;;;;;5117828;27;20075;-79
2023/09/22 12:53:53;;;;;;;7.43;2.05;;;;;;;;;;5118193;27;20504;-79
2023/09/22 12:56:19;;;;;;;2.83;1.80;;;;;;;;;;5153653;27;20440;-79
2023/09/22 12:58:45;;;;;;;4.35;1.90;;;;;;;;;;5138821;27;20088;-78
2023/09/22 13:01:12;;;;;;;2.67;1.70;;;;;;;;;;5137862;27;20473;-78
2023/09/22 13:03:39;;;;;;;2.17;1.70;;;;;;;;;;5156568;27;20038;-79
2023/09/22 13:06:05;;;;;;;5.00;1.80;;;;;;;;;;5143607;27;20051;-79
2023/09/22 13:08:33;;;;;;;4.50;1.80;;;;;;;;;;5136666;27;20035;-79
2023/09/22 13:11:00;;;;;;;3.80;1.83;;;;;;;;;;5117502;27;20059;-78
2023/09/22 13:13:26;;;;;;;3.03;1.75;;;;;;;;;;5117730;27;20443;-79
2023/09/22 13:15:52;;;;;;;4.30;2.00;;;;;;;;;;5132704;27;20054;-79
2023/09/22 13:18:18;;;;;;;2.67;1.73;;;;;;;;;;5117761;27;20106;-78
2023/09/22 13:20:45;;;;;;;3.70;1.80;;;;;;;;;;5117417;27;20065;-79
2023/09/22 13:23:12;;;;;;;4.28;1.70;;;;;;;;;;5135164;27;20404;-79
2023/09/22 13:25:38;;;;;;;5.40;1.95;;;;;;;;;;5134897;27;20447;-79
2023/09/22 13:28:08;;;;;;;4.60;2.00;;;;;;;;;;5135569;27;20035;-78
2023/09/22 13:30:35;;;;;;;3.78;2.00;;;;;;;;;;5113662;27;20051;-78
2023/09/22 13:33:02;;;;;;;4.70;2.33;;;;;;;;;;5117547;27;20340;-78
2023/09/22 13:35:28;;;;;;;3.40;1.85;;;;;;;;;;5134933;27;20491;-78
2023/09/22 13:37:54;;;;;;;5.13;1.83;;;;;;;;;;5135695;27;20091;-79
2023/09/22 13:40:21;;;;;;;4.22;1.83;;;;;;;;;;5135205;27;20396;-78
2023/09/22 13:42:47;;;;;;;4.07;2.00;;;;;;;;;;5135194;27;20043;-79
2023/09/22 13:45:13;;;;;;;5.35;2.15;;;;;;;;;;5116631;27;20460;-78
2023/09/22 13:47:39;;;;;;;3.22;2.00;;;;;;;;;;5135051;27;20039;-78
2023/09/22 13:50:06;;;;;;;5.05;1.90;;;;;;;;;;5133350;27;20050;-78
2023/09/22 13:52:32;;;;;;;3.30;2.00;;;;;;;;;;5132878;27;20080;-78
2023/09/22 13:54:58;;;;;;;3.38;1.80;;;;;;;;;;5120096;27;20044;-78
2023/09/22 13:57:25;;;;;;;2.78;1.95;;;;;;;;;;5140402;27;20129;-78
2023/09/22 13:59:54;;;;;;;4.55;2.33;;;;;;;;;;5128290;27;20043;-78
2023/09/22 14:02:20;;;;;;;3.38;1.90;;;;;;;;;;5119277;27;20060;-80
2023/09/22 14:04:46;;;;;;;6.25;2.20;;;;;;;;;;5134368;27;20379;-79
2023/09/22 14:07:12;;;;;;;3.65;1.90;;;;;;;;;;5136908;27;20046;-79
2023/09/22 14:09:38;;;;;;;5.80;2.08;;;;;;;;;;5137102;27;20085;-79
2023/09/22 14:12:07;;;;;;;4.18;1.70;;;;;;;;;;5128211;27;20102;-80
2023/09/22 14:14:34;;;;;;;5.93;1.95;;;;;;;;;;5122989;27;20046;-76
2023/09/22 14:17:00;;;;;;;2.83;1.92;;;;;;;;;;5138277;27;20130;-75
2023/09/22 14:19:26;;;;;;;4.07;1.95;;;;;;;;;;5125669;27;20491;-77
2023/09/22 14:21:52;;;;;;;3.60;1.70;;;;;;;;;;5115473;27;20051;-77
2023/09/22 14:24:19;;;;;;;4.63;1.80;;;;;;;;;;5115255;27;20080;-77
2023/09/22 14:26:45;;;;;;;3.63;1.90;;;;;;;;;;5129307;27;20116;-77
2023/09/22 14:29:11;;;;;;;2.58;1.65;;;;;;;;;;5113855;28;20077;-80
2023/09/22 14:31:37;;;;;;;5.53;1.80;;;;;;;;;;5113588;28;20096;-79